createdAt,value
2023-03-10T00:04:00.567Z,100231.84
2023-03-10T00:09:05.392Z,100228.97
2023-03-10T00:14:09.992Z,100240.03
2023-03-10T00:19:14.627Z,100235.06
2023-03-10T00:24:19.248Z,100245.09
2023-03-10T00:29:23.934Z,100242.84
2023-03-10T00:34:28.635Z,100251.63
2023-03-10T00:39:33.290Z,100232.41
2023-03-10T00:44:38.369Z,100243.81
2023-03-10T00:49:43.043Z,100241.94
2023-03-10T00:54:49.223Z,100240.59
2023-03-10T00:59:54.181Z,100243.28
2023-03-10T01:04:58.773Z,100244.94
2023-03-10T01:10:03.488Z,100253.06
2023-03-10T01:15:08.924Z,100262.28
2023-03-10T01:20:16.390Z,100259.59
2023-03-10T01:25:20.986Z,100245.16
2023-03-10T01:30:25.732Z,100255.44
2023-03-10T01:35:32.652Z,100265.38
2023-03-10T01:40:39.402Z,100276.91
2023-03-10T01:45:48.778Z,100260.03
2023-03-10T01:50:57.378Z,100262.31
2023-03-10T01:56:05.883Z,100261.56
2023-03-10T02:01:12.360Z,100256.63
2023-03-10T02:06:20.632Z,100241.56
2023-03-10T02:11:29.266Z,100242.06
2023-03-10T02:16:35.177Z,100253.28
2023-03-10T02:22:09.511Z,100236.44
2023-03-10T02:27:20.366Z,100278.84
2023-03-10T02:32:26.320Z,100231.63
2023-03-10T02:37:34.261Z,100217.38
2023-03-10T02:42:39.519Z,100210.72
2023-03-10T02:47:44.300Z,100211.41
2023-03-10T02:53:17.476Z,100206.94
2023-03-10T02:58:26.083Z,100198.53
2023-03-10T03:03:30.895Z,100198.53
2023-03-10T03:08:35.810Z,100197.88
2023-03-10T03:13:43.811Z,100182.00
2023-03-10T03:18:48.703Z,100183.13
2023-03-10T03:23:56.642Z,100187.50
2023-03-10T03:29:01.524Z,100185.91
2023-03-10T03:34:10.418Z,100205.00
2023-03-10T03:39:18.502Z,100175.81
2023-03-10T03:44:27.425Z,100170.59
2023-03-10T03:49:33.474Z,100157.09
2023-03-10T03:54:38.774Z,100158.28
2023-03-10T03:59:43.848Z,100166.41
2023-03-10T04:04:49.668Z,100150.72
2023-03-10T04:09:54.034Z,100143.09
2023-03-10T04:14:58.850Z,100141.03
2023-03-10T04:20:07.450Z,100155.63
2023-03-10T04:25:15.814Z,100125.97
2023-03-10T04:30:21.740Z,100113.19
2023-03-10T04:35:28.270Z,100101.38
2023-03-10T04:40:33.994Z,100097.91
2023-03-10T04:45:39.442Z,100078.50
2023-03-10T04:50:44.872Z,100076.69
2023-03-10T04:55:52.686Z,100086.91
2023-03-10T05:01:03.333Z,100073.22
2023-03-10T05:06:20.550Z,100064.84
2023-03-10T05:11:34.824Z,100061.53
2023-03-10T05:16:39.415Z,100059.31
2023-03-10T05:21:45.194Z,100049.78
2023-03-10T05:26:50.027Z,100038.00
2023-03-10T05:31:54.995Z,100027.72
2023-03-10T05:37:05.570Z,100024.63
2023-03-10T05:42:10.187Z,100020.91
2023-03-10T05:47:15.731Z,100018.06
2023-03-10T05:52:20.489Z,100007.56
2023-03-10T05:57:25.679Z,100022.47
2023-03-10T06:02:30.409Z,100022.25
2023-03-10T06:07:35.659Z,100011.22
2023-03-10T06:12:40.404Z,100010.16
2023-03-10T06:17:45.086Z,100008.84
2023-03-10T06:22:49.703Z,100029.09
2023-03-10T06:27:54.376Z,100003.16
2023-03-10T06:33:00.310Z,100036.72
2023-03-10T06:38:05.017Z,100011.31
2023-03-10T06:43:09.720Z,100007.53
2023-03-10T06:48:14.971Z,100022.09
2023-03-10T06:53:24.862Z,100023.72
2023-03-10T06:58:30.892Z,100031.28
2023-03-10T07:03:36.790Z,100057.16
2023-03-10T07:08:40.839Z,100049.03
2023-03-10T07:13:45.459Z,100063.53
2023-03-10T07:18:50.271Z,100070.50
2023-03-10T07:23:54.932Z,100088.78
2023-03-10T07:28:59.918Z,100078.38
2023-03-10T07:34:04.739Z,100090.72
2023-03-10T07:39:09.676Z,100130.03
2023-03-10T07:44:13.763Z,100092.97
2023-03-10T07:49:21.808Z,100102.28
2023-03-10T07:54:27.069Z,100141.59
2023-03-10T07:59:31.812Z,100133.69
2023-03-10T08:04:36.529Z,100159.63
2023-03-10T08:09:40.809Z,100138.00
2023-03-10T08:14:46.405Z,100144.66
2023-03-10T08:19:51.086Z,100150.16
2023-03-10T08:24:57.273Z,100146.44
2023-03-10T08:30:01.868Z,100192.66
2023-03-10T08:35:07.744Z,100146.13
2023-03-10T08:40:14.624Z,100159.59
2023-03-10T08:45:19.281Z,100170.38
2023-03-10T08:50:23.962Z,100182.19
2023-03-10T08:55:28.737Z,100192.47
2023-03-10T09:00:33.363Z,100224.25
2023-03-10T09:05:38.428Z,100224.91
2023-03-10T09:10:45.695Z,100232.78
2023-03-10T09:15:51.699Z,100244.41
2023-03-10T09:20:57.217Z,100257.88
2023-03-10T09:26:01.939Z,100298.94
2023-03-10T09:31:12.770Z,100287.03
2023-03-10T09:36:19.705Z,100310.41
2023-03-10T09:41:48.010Z,100339.75
2023-03-10T09:47:06.059Z,100395.69
2023-03-10T09:52:32.289Z,100383.66
2023-03-10T09:57:37.839Z,100402.66
2023-03-10T10:02:47.214Z,100424.31
2023-03-10T10:07:57.594Z,100431.34
2023-03-10T10:13:13.065Z,100451.13
2023-03-10T10:18:29.231Z,100470.44
2023-03-10T10:23:52.755Z,100480.59
2023-03-10T10:29:20.463Z,100508.09
2023-03-10T10:34:25.663Z,100524.88
2023-03-10T10:39:35.252Z,100541.25
2023-03-10T10:44:47.664Z,100567.94
2023-03-10T10:49:53.078Z,100563.88
2023-03-10T10:55:01.407Z,100587.47
2023-03-10T11:00:34.166Z,100599.91
2023-03-10T11:05:39.906Z,100620.38
2023-03-10T11:10:47.403Z,100625.16
2023-03-10T11:16:07.275Z,100645.78
2023-03-10T11:21:18.264Z,100671.78
2023-03-10T11:26:49.310Z,100677.97
2023-03-10T11:32:16.117Z,100699.03
2023-03-10T11:37:37.144Z,100714.28
2023-03-10T11:43:01.982Z,100731.38
2023-03-10T11:48:22.279Z,100731.16
2023-03-10T11:53:51.081Z,100743.50
2023-03-10T11:59:14.900Z,100746.59
2023-03-10T12:04:39.862Z,100777.63
2023-03-10T12:09:52.520Z,100774.91
2023-03-10T12:15:01.090Z,100785.75
2023-03-10T12:20:24.561Z,100850.88
2023-03-10T12:25:33.806Z,100810.75
2023-03-10T12:30:58.450Z,100823.06
2023-03-10T12:36:16.485Z,100847.13
2023-03-10T12:41:30.563Z,100858.78
2023-03-10T12:46:53.791Z,100874.00
2023-03-10T12:52:31.296Z,100892.69
2023-03-10T12:57:41.237Z,100898.44
2023-03-10T13:03:02.329Z,100950.00
2023-03-10T13:08:20.003Z,100962.47
2023-03-10T13:13:28.844Z,100939.56
2023-03-10T13:18:35.161Z,100969.44
2023-03-10T13:23:40.130Z,100954.22
2023-03-10T13:29:04.640Z,100961.81
2023-03-10T13:34:22.948Z,100976.94
2023-03-10T13:39:30.025Z,100988.59
2023-03-10T13:44:41.989Z,100993.47
2023-03-10T13:50:00.247Z,101003.88
2023-03-10T13:55:13.717Z,101019.47
2023-03-10T14:00:22.249Z,101025.75
2023-03-10T14:05:47.501Z,101062.66
2023-03-10T14:10:53.109Z,101059.44
2023-03-10T14:15:58.153Z,101050.97
2023-03-10T14:21:27.299Z,101069.38
2023-03-10T14:26:32.632Z,101084.47
2023-03-10T14:31:37.507Z,101089.72
2023-03-10T14:36:43.098Z,101097.50
2023-03-10T14:41:50.354Z,101096.44
2023-03-10T14:46:56.295Z,101098.63
2023-03-10T14:52:01.372Z,101110.16
2023-03-10T14:57:06.738Z,101115.84
2023-03-10T15:02:25.710Z,101135.88
2023-03-10T15:07:30.635Z,101110.56
2023-03-10T15:12:37.958Z,101126.44
2023-03-10T15:17:43.643Z,101126.53
2023-03-10T15:22:48.960Z,101131.56
2023-03-10T15:27:54.754Z,101144.81
2023-03-10T15:33:01.290Z,101153.22
2023-03-10T15:38:05.399Z,101159.63
2023-03-10T15:43:10.783Z,101181.28
2023-03-10T15:48:16.491Z,101184.00
2023-03-10T15:53:22.567Z,101182.97
2023-03-10T15:58:27.357Z,101181.50
2023-03-10T16:03:32.050Z,101193.16
2023-03-10T16:08:39.269Z,101205.50
2023-03-10T16:13:46.454Z,101208.81
2023-03-10T16:18:52.729Z,101212.16
2023-03-10T16:23:58.418Z,101219.16
2023-03-10T16:29:03.189Z,101245.97
2023-03-10T16:34:08.307Z,101240.78
2023-03-10T16:39:15.623Z,101239.66
2023-03-10T16:44:21.404Z,101253.63
2023-03-10T16:49:26.034Z,101258.28
2023-03-10T16:54:30.684Z,101271.94
2023-03-10T16:59:36.262Z,101289.72
2023-03-10T17:04:41.953Z,101308.53
2023-03-10T17:09:46.937Z,101316.34
2023-03-10T17:14:52.774Z,101324.16
2023-03-10T17:19:57.420Z,101336.66
2023-03-10T17:25:02.058Z,101343.28
2023-03-10T17:30:08.013Z,101352.25
2023-03-10T17:35:12.620Z,101419.25
2023-03-10T17:40:18.480Z,101371.53
2023-03-10T17:45:23.108Z,101382.84
2023-03-10T17:50:29.424Z,101397.28
2023-03-10T17:55:37.240Z,101440.50
2023-03-10T18:00:42.087Z,101408.84
2023-03-10T18:05:46.907Z,101427.13
2023-03-10T18:11:02.292Z,101437.53
2023-03-10T18:16:08.420Z,101473.59
2023-03-10T18:21:13.976Z,101429.56
2023-03-10T18:26:22.236Z,101447.63
2023-03-10T18:31:36.947Z,101459.75
2023-03-10T18:36:41.732Z,101463.88
2023-03-10T18:41:46.537Z,101472.31
2023-03-10T18:46:51.369Z,101472.47
2023-03-10T18:51:57.024Z,101472.63
2023-03-10T18:57:02.886Z,101472.44
2023-03-10T19:02:15.729Z,101483.34
2023-03-10T19:07:23.877Z,101484.16
2023-03-10T19:12:30.678Z,101467.31
2023-03-10T19:17:35.989Z,101462.59
2023-03-10T19:22:43.220Z,101458.59
2023-03-10T19:27:50.016Z,101464.22
2023-03-10T19:32:54.580Z,101481.47
2023-03-10T19:37:59.277Z,101500.88
2023-03-10T19:43:04.787Z,101514.00
2023-03-10T19:48:09.375Z,101518.34
2023-03-10T19:53:13.887Z,101531.28
2023-03-10T19:58:18.465Z,101557.72
2023-03-10T20:03:23.218Z,101574.47
2023-03-10T20:08:28.083Z,101584.81
2023-03-10T20:13:36.827Z,101590.13
2023-03-10T20:18:41.648Z,101596.59
2023-03-10T20:23:48.803Z,101608.41
2023-03-10T20:28:54.334Z,101607.41
2023-03-10T20:33:58.994Z,101630.84
2023-03-10T20:39:03.590Z,101682.78
2023-03-10T20:44:10.721Z,101632.91
2023-03-10T20:49:15.511Z,101640.03
2023-03-10T20:54:20.261Z,101624.50
2023-03-10T20:59:25.031Z,101637.94
2023-03-10T21:04:29.847Z,101656.44
2023-03-10T21:09:34.548Z,101649.88
2023-03-10T21:14:39.281Z,101667.06
2023-03-10T21:19:44.232Z,101664.16
2023-03-10T21:24:50.407Z,101671.88
2023-03-10T21:29:56.192Z,101663.22
2023-03-10T21:35:01.023Z,101665.75
2023-03-10T21:40:06.847Z,101668.25
2023-03-10T21:45:14.888Z,101709.88
2023-03-10T21:50:20.808Z,101675.94
2023-03-10T21:55:26.857Z,101674.94
2023-03-10T22:00:31.552Z,101672.44
2023-03-10T22:05:36.439Z,101681.53
2023-03-10T22:10:41.207Z,101680.97
2023-03-10T22:15:45.993Z,101679.44
2023-03-10T22:20:50.820Z,101679.72
2023-03-10T22:25:55.705Z,101726.06
2023-03-10T22:31:00.481Z,101678.34
2023-03-10T22:36:10.580Z,101673.91
2023-03-10T22:41:16.280Z,101682.16
2023-03-10T22:46:21.480Z,101696.91
2023-03-10T22:51:26.235Z,101701.50
2023-03-10T22:56:30.796Z,101704.88
2023-03-10T23:01:35.577Z,101727.75
2023-03-10T23:06:40.437Z,101730.25
2023-03-10T23:11:46.537Z,101746.16
2023-03-10T23:16:51.361Z,101752.84
2023-03-10T23:21:55.475Z,101778.81
2023-03-10T23:27:00.132Z,101787.19
2023-03-10T23:32:04.853Z,101796.28
2023-03-10T23:37:09.569Z,101797.66
2023-03-10T23:42:14.292Z,101808.66
2023-03-10T23:47:19.056Z,101824.25
2023-03-10T23:52:23.722Z,101831.00
2023-03-10T23:57:28.485Z,101847.50
